Terminal Aerodrome Forecast
Issued by NWS Bismarck, ND

Home | Current Version | Previous Version | Graphics & Text | Print | Product List | Glossary On
Versions: 1 2 3 4 5 6 7 8 9 10 11 12 13 14 15 16 17
975
FTUS43 KBIS 240136 AAB
TAFBIS
TAF AMD
KBIS 240136Z 2402/2424 03009KT P6SM -SHRA BKN035 OVC050
      TEMPO 2402/2404 BKN018 OVC025
     FM240400 01010KT P6SM -SHRA OVC015
     FM240600 36011KT P6SM -SHRA OVC008
     FM241700 35013KT P6SM VCSH OVC008
     FM242000 35013KT P6SM OVC010=

USA.gov is the U.S. government's official web portal to all federal, state and local government web resources and services.